Delta Ios — SVAK9 — position and weather

sailwx.info

Track history (hours):
 
Tides and Currents Weather Stations Pressure Air Temp Water Temp Dewpoint Dewpoint Depression Visibility Wind Speed Wind Dir Waves Ship Positions

Delta Ios

Last reported at 2016-Aug-14 19:33 UTC. Time now 2016-Aug-27 09:51 UTC.
Position N 27°29' W 015°13'.
Warning: this ship's position is 12 days out of date.

Length 276 m; draft 9 m.

Type: Tanker. MMSI: 240821000.

Date/timePositionNaut miles runAvg speedWind from/ knotsBaromVisibWave heightAir tempDewpointWater temp
2016-Aug-14 19:33N 27°29' W 015°13'1010.3
2016-Aug-14 18:33N 27°39' W 015°10'1010.3
2016-Aug-14 17:33N 27°49' W 015°07'1010.2
2016-Aug-14 16:33N 27°59' W 015°04'1010.1
2016-Aug-14 15:33N 28°08' W 015°00'10 9.9
2016-Aug-14 14:33N 28°18' W 014°56'10 9.7
2016-Aug-14 13:33N 28°26' W 014°50'1010.0
2016-Aug-14 12:33N 28°33' W 014°43'10 9.9
2016-Aug-14 11:33N 28°41' W 014°36'10 9.6
2016-Aug-14 10:32N 28°49' W 014°29'10 9.7
2016-Aug-14 09:31N 28°56' W 014°22'10 9.5
2016-Aug-14 08:29N 29°04' W 014°14'9 9.5
2016-Aug-14 07:32N 29°11' W 014°08'9 9.4
2016-Aug-14 06:33N 29°18' W 014°01'2010.0
2016-Aug-14 04:32N 29°33' W 013°46'1210.3
2016-Aug-14 03:25N 29°42' W 013°38'1010.8
2016-Aug-14 02:29N 29°50' W 013°30'1310.7
2016-Aug-14 01:16N 29°60' W 013°21'1210.3
2016-Aug-14 00:04N 30°09' W 013°12'610.6
2016-Aug-13 23:29N 30°14' W 013°08'1010.1
2016-Aug-13 22:33N 30°21' W 012°60'10 9.9
2016-Aug-13 21:33N 30°29' W 012°53'10 9.8
2016-Aug-13 20:33N 30°36' W 012°45'10 9.9
2016-Aug-13 19:33N 30°44' W 012°38'10 9.9
2016-Aug-13 18:31N 30°52' W 012°30'1010.0
2016-Aug-13 17:33N 30°59' W 012°23'10 9.8
2016-Aug-13 16:33N 31°06' W 012°16'10 9.7
2016-Aug-13 15:33N 31°14' W 012°09'10 9.6
2016-Aug-13 14:33N 31°21' W 012°01'9 9.3
2016-Aug-13 13:33N 31°29' W 011°54'10 9.5
2016-Aug-13 12:27N 31°37' W 011°47'9 9.7
2016-Aug-13 11:33N 31°43' W 011°40'10 9.8
2016-Aug-13 10:33N 31°51' W 011°33'10 9.4
2016-Aug-13 09:33N 31°58' W 011°25'10 9.7
2016-Aug-13 08:28N 32°06' W 011°18'9 9.7
2016-Aug-13 07:31N 32°13' W 011°11'9 9.7
2016-Aug-13 06:32N 32°20' W 011°03'9 9.5
2016-Aug-13 05:33N 32°28' W 010°56'10 9.5
2016-Aug-13 04:32N 32°35' W 010°49'10 9.8
2016-Aug-13 03:33N 32°42' W 010°42'10 9.7
2016-Aug-13 02:33N 32°50' W 010°34'10 9.6
2016-Aug-13 01:33N 32°57' W 010°27'11 9.7
2016-Aug-13 00:24N 33°06' W 010°18'8 9.6
2016-Aug-12 23:33N 33°12' W 010°12'10 9.7
2016-Aug-12 22:30N 33°20' W 010°04'9 9.6
2016-Aug-12 21:33N 33°27' W 009°57'10 9.5
2016-Aug-12 20:33N 33°34' W 009°50'10 9.5
2016-Aug-12 19:33N 33°41' W 009°43'10 9.6
2016-Aug-12 18:33N 33°49' W 009°35'10 9.7
2016-Aug-12 17:33N 33°56' W 009°28'10 9.7
2016-Aug-12 16:33N 34°04' W 009°20'9 9.4
2016-Aug-12 15:33N 34°11' W 009°13'9 9.1
2016-Aug-12 14:33N 34°18' W 009°06'11 9.3
2016-Aug-12 13:25N 34°26' W 008°59'8 9.2
2016-Aug-12 12:31N 34°32' W 008°52'10 9.5
2016-Aug-12 11:27N 34°40' W 008°44'8 9.2
2016-Aug-12 10:33N 34°47' W 008°38'9 9.3
2016-Aug-12 09:33N 34°54' W 008°31'23 9.3
2016-Aug-12 07:07N 35°11' W 008°12'8 9.3
2016-Aug-12 06:17N 35°17' W 008°06'16 9.2
2016-Aug-12 04:31N 35°29' W 007°53'9 9.1
2016-Aug-12 03:32N 35°36' W 007°46'13 8.9
2016-Aug-12 02:04N 35°46' W 007°36'8 9.2
2016-Aug-12 01:10N 35°52' W 007°28'47 1.5
2016-Aug-10 17:06N 36°12' W 006°35'3 5.0
2016-Aug-10 16:27N 36°09' W 006°35'2 2.4
2016-Aug-10 15:33N 36°10' W 006°32'3 2.4
2016-Aug-10 14:24N 36°10' W 006°29'2 2.4
2016-Aug-10 13:33N 36°09' W 006°26'4 0.4
2016-Aug-10 01:27N 36°09' W 006°21'0 0.0
2016-Aug-10 00:33N 36°09' W 006°21'0 0.1
2016-Aug-09 23:30N 36°09' W 006°21'0 0.1
2016-Aug-09 22:30N 36°09' W 006°20'0 0.1
2016-Aug-09 21:33N 36°09' W 006°21'0 0.0
2016-Aug-09 18:03N 36°09' W 006°21'0 0.0
2016-Aug-09 12:33N 36°09' W 006°21'20 0.4
2016-Aug-07 16:13N 36°07' W 006°45'55 1.8
2016-Aug-06 10:18N 35°58' W 005°38'6 8.2
2016-Aug-06 09:33N 35°60' W 005°31'9 8.5
2016-Aug-06 08:33N 36°06' W 005°24'4 4.3
2016-Aug-06 07:33N 36°10' W 005°25'0 0.0
2016-Aug-06 04:33N 36°10' W 005°25'0 0.1
2016-Aug-06 03:33N 36°10' W 005°25'0 0.1
2016-Aug-06 02:33N 36°10' W 005°25'0 0.2
2016-Aug-06 01:33N 36°10' W 005°25'0 0.2
2016-Aug-06 00:33N 36°10' W 005°25'0 0.0
2016-Aug-05 22:33N 36°10' W 005°25'0 0.0
2016-Aug-05 19:27N 36°10' W 005°25'0 0.1
2016-Aug-05 18:30N 36°10' W 005°25'0 0.0
2016-Aug-05 17:30N 36°10' W 005°25'0 0.0
2016-Aug-05 16:33N 36°10' W 005°25'0 0.1
2016-Aug-05 15:33N 36°10' W 005°25'0 0.4
2016-Aug-05 14:33N 36°10' W 005°24'0 0.0
2016-Aug-05 13:33N 36°10' W 005°24'0 0.0
2016-Aug-05 12:33N 36°10' W 005°24'0 0.0
2016-Aug-05 11:33N 36°10' W 005°24'0 0.1
2016-Aug-05 10:33N 36°10' W 005°24'0 0.0
2016-Aug-05 09:33N 36°10' W 005°24'0 0.0
2016-Aug-05 08:33N 36°10' W 005°24'0 0.0
2016-Aug-05 07:33N 36°10' W 005°24'0 0.1
2016-Aug-05 06:33N 36°10' W 005°24'0 0.1
2016-Aug-05 04:33N 36°10' W 005°24'0 0.1
2016-Aug-05 03:33N 36°10' W 005°24'0 0.1
2016-Aug-05 02:33N 36°10' W 005°24'0 0.1
2016-Aug-05 01:33N 36°10' W 005°24'0 0.1
2016-Aug-05 00:33N 36°10' W 005°24'0 0.0
2016-Aug-04 23:33N 36°10' W 005°24'0 0.0
2016-Aug-04 22:33N 36°10' W 005°24'0 0.0
2016-Aug-04 21:33N 36°10' W 005°24'0 0.4
2016-Aug-04 20:26N 36°10' W 005°25'  
Track history (hours):
 
Tides and Currents Weather Stations Pressure Air Temp Water Temp Dewpoint Dewpoint Depression Visibility Wind Speed Wind Dir Waves Ship Positions

Delta Ios

Last reported at 2016-Aug-14 19:33 UTC. Time now 2016-Aug-27 09:51 UTC.
Position N 27°29' W 015°13'.
Warning: this ship's position is 12 days out of date.

Length 276 m; draft 9 m.

Type: Tanker. MMSI: 240821000.

Date/timePositionNaut miles runAvg speedWind from/ knotsBaromVisibWave heightAir tempDewpointWater temp
2016-Aug-14 19:33N 27°29' W 015°13'1010.3
2016-Aug-14 18:33N 27°39' W 015°10'1010.3
2016-Aug-14 17:33N 27°49' W 015°07'1010.2
2016-Aug-14 16:33N 27°59' W 015°04'1010.1
2016-Aug-14 15:33N 28°08' W 015°00'10 9.9
2016-Aug-14 14:33N 28°18' W 014°56'10 9.7
2016-Aug-14 13:33N 28°26' W 014°50'1010.0
2016-Aug-14 12:33N 28°33' W 014°43'10 9.9
2016-Aug-14 11:33N 28°41' W 014°36'10 9.6
2016-Aug-14 10:32N 28°49' W 014°29'10 9.7
2016-Aug-14 09:31N 28°56' W 014°22'10 9.5
2016-Aug-14 08:29N 29°04' W 014°14'9 9.5
2016-Aug-14 07:32N 29°11' W 014°08'9 9.4
2016-Aug-14 06:33N 29°18' W 014°01'2010.0
2016-Aug-14 04:32N 29°33' W 013°46'1210.3
2016-Aug-14 03:25N 29°42' W 013°38'1010.8
2016-Aug-14 02:29N 29°50' W 013°30'1310.7
2016-Aug-14 01:16N 29°60' W 013°21'1210.3
2016-Aug-14 00:04N 30°09' W 013°12'610.6
2016-Aug-13 23:29N 30°14' W 013°08'1010.1
2016-Aug-13 22:33N 30°21' W 012°60'10 9.9
2016-Aug-13 21:33N 30°29' W 012°53'10 9.8
2016-Aug-13 20:33N 30°36' W 012°45'10 9.9
2016-Aug-13 19:33N 30°44' W 012°38'10 9.9
2016-Aug-13 18:31N 30°52' W 012°30'1010.0
2016-Aug-13 17:33N 30°59' W 012°23'10 9.8
2016-Aug-13 16:33N 31°06' W 012°16'10 9.7
2016-Aug-13 15:33N 31°14' W 012°09'10 9.6
2016-Aug-13 14:33N 31°21' W 012°01'9 9.3
2016-Aug-13 13:33N 31°29' W 011°54'10 9.5
2016-Aug-13 12:27N 31°37' W 011°47'9 9.7
2016-Aug-13 11:33N 31°43' W 011°40'10 9.8
2016-Aug-13 10:33N 31°51' W 011°33'10 9.4
2016-Aug-13 09:33N 31°58' W 011°25'10 9.7
2016-Aug-13 08:28N 32°06' W 011°18'9 9.7
2016-Aug-13 07:31N 32°13' W 011°11'9 9.7
2016-Aug-13 06:32N 32°20' W 011°03'9 9.5
2016-Aug-13 05:33N 32°28' W 010°56'10 9.5
2016-Aug-13 04:32N 32°35' W 010°49'10 9.8
2016-Aug-13 03:33N 32°42' W 010°42'10 9.7
2016-Aug-13 02:33N 32°50' W 010°34'10 9.6
2016-Aug-13 01:33N 32°57' W 010°27'11 9.7
2016-Aug-13 00:24N 33°06' W 010°18'8 9.6
2016-Aug-12 23:33N 33°12' W 010°12'10 9.7
2016-Aug-12 22:30N 33°20' W 010°04'9 9.6
2016-Aug-12 21:33N 33°27' W 009°57'10 9.5
2016-Aug-12 20:33N 33°34' W 009°50'10 9.5
2016-Aug-12 19:33N 33°41' W 009°43'10 9.6
2016-Aug-12 18:33N 33°49' W 009°35'10 9.7
2016-Aug-12 17:33N 33°56' W 009°28'10 9.7
2016-Aug-12 16:33N 34°04' W 009°20'9 9.4
2016-Aug-12 15:33N 34°11' W 009°13'9 9.1
2016-Aug-12 14:33N 34°18' W 009°06'11 9.3
2016-Aug-12 13:25N 34°26' W 008°59'8 9.2
2016-Aug-12 12:31N 34°32' W 008°52'10 9.5
2016-Aug-12 11:27N 34°40' W 008°44'8 9.2
2016-Aug-12 10:33N 34°47' W 008°38'9 9.3
2016-Aug-12 09:33N 34°54' W 008°31'23 9.3
2016-Aug-12 07:07N 35°11' W 008°12'8 9.3
2016-Aug-12 06:17N 35°17' W 008°06'16 9.2
2016-Aug-12 04:31N 35°29' W 007°53'9 9.1
2016-Aug-12 03:32N 35°36' W 007°46'13 8.9
2016-Aug-12 02:04N 35°46' W 007°36'8 9.2
2016-Aug-12 01:10N 35°52' W 007°28'47 1.5
2016-Aug-10 17:06N 36°12' W 006°35'3 5.0
2016-Aug-10 16:27N 36°09' W 006°35'2 2.4
2016-Aug-10 15:33N 36°10' W 006°32'3 2.4
2016-Aug-10 14:24N 36°10' W 006°29'2 2.4
2016-Aug-10 13:33N 36°09' W 006°26'4 0.4
2016-Aug-10 01:27N 36°09' W 006°21'0 0.0
2016-Aug-10 00:33N 36°09' W 006°21'0 0.1
2016-Aug-09 23:30N 36°09' W 006°21'0 0.1
2016-Aug-09 22:30N 36°09' W 006°20'0 0.1
2016-Aug-09 21:33N 36°09' W 006°21'0 0.0
2016-Aug-09 18:03N 36°09' W 006°21'0 0.0
2016-Aug-09 12:33N 36°09' W 006°21'20 0.4
2016-Aug-07 16:13N 36°07' W 006°45'55 1.8
2016-Aug-06 10:18N 35°58' W 005°38'6 8.2
2016-Aug-06 09:33N 35°60' W 005°31'9 8.5
2016-Aug-06 08:33N 36°06' W 005°24'4 4.3
2016-Aug-06 07:33N 36°10' W 005°25'0 0.0
2016-Aug-06 04:33N 36°10' W 005°25'0 0.1
2016-Aug-06 03:33N 36°10' W 005°25'0 0.1
2016-Aug-06 02:33N 36°10' W 005°25'0 0.2
2016-Aug-06 01:33N 36°10' W 005°25'0 0.2
2016-Aug-06 00:33N 36°10' W 005°25'0 0.0
2016-Aug-05 22:33N 36°10' W 005°25'0 0.0
2016-Aug-05 19:27N 36°10' W 005°25'0 0.1
2016-Aug-05 18:30N 36°10' W 005°25'0 0.0
2016-Aug-05 17:30N 36°10' W 005°25'0 0.0
2016-Aug-05 16:33N 36°10' W 005°25'0 0.1
2016-Aug-05 15:33N 36°10' W 005°25'0 0.4
2016-Aug-05 14:33N 36°10' W 005°24'0 0.0
2016-Aug-05 13:33N 36°10' W 005°24'0 0.0
2016-Aug-05 12:33N 36°10' W 005°24'0 0.0
2016-Aug-05 11:33N 36°10' W 005°24'0 0.1
2016-Aug-05 10:33N 36°10' W 005°24'0 0.0
2016-Aug-05 09:33N 36°10' W 005°24'0 0.0
2016-Aug-05 08:33N 36°10' W 005°24'0 0.0
2016-Aug-05 07:33N 36°10' W 005°24'0 0.1
2016-Aug-05 06:33N 36°10' W 005°24'0 0.1
2016-Aug-05 04:33N 36°10' W 005°24'0 0.1
2016-Aug-05 03:33N 36°10' W 005°24'0 0.1
2016-Aug-05 02:33N 36°10' W 005°24'0 0.1
2016-Aug-05 01:33N 36°10' W 005°24'0 0.1
2016-Aug-05 00:33N 36°10' W 005°24'0 0.0
2016-Aug-04 23:33N 36°10' W 005°24'0 0.0
2016-Aug-04 22:33N 36°10' W 005°24'0 0.0
2016-Aug-04 21:33N 36°10' W 005°24'0 0.4
2016-Aug-04 20:26N 36°10' W 005°25'  

Dump ship's entire track history